< < Back
Terminal Aerodrome Forecast


Current Version              Previous Versions:   1  2  3  4  5  6  7  8  9  

Terminal Aerodrome Forecast

135
FTUS42 KMLB 210100 AAB
TAFMCO
TAF AMD
KMCO 210140Z 2102/2124 13007KT P6SM FEW060 BKN070 BKN250
     FM210300 VRB03KT P6SM FEW070 BKN250
     FM210600 VRB02KT P6SM FEW250
     FM211400 25005KT P6SM FEW040 FEW250
     FM212200 12004KT P6SM SCT040=

Latest METAR

485
SAUS70 KWBC 211400 RRI
MTRMCO
METAR KMCO 211353Z 00000KT 10SM SCT280 32/24 A3013 RMK AO2 SLP203
T03170239


USA.gov is the U.S. government's official web portal to all federal, state and local government web resources and services.